• Join FlightAware (Why Join?)
  • Login
  • US Flag 
12:07AM EDT


 

Airport Tracker/Info


-or-


 

Live Flight TrackerFlight Track Log ✈ JBU1410 ✈ 31-Oct-2013 ✈ KJAX - KBOS

Flight Track Log - Related Links

Times and Time Zones

All times are in EDT time to prevent confusion due to time zone crossing. See the JBU1410 flight status page for this flight to view local times or setup timezone preferences in your user account.

Time Position Orientation Groundspeed Altitude Reporting Facility
EDT Latitude Longitude Course Direction KTS MPH feet Rate Location/Type
07:31PM 30.5069 -81.6725 North 152 175 700  Level Jacksonville Center
07:32PM 30.5486 -81.6383 35° Northeast 184 212 2,700 1,980 Climbing Jacksonville Center
07:33PM 30.6172 -81.6108 19° North 216 249 5,200 2,880 Climbing Jacksonville Center
07:34PM 30.6961 -81.5808 18° North 261 300 8,500 2,820 Climbing Jacksonville Center
07:35PM 30.8995 -81.3826 11° North  Level Estimated
07:35PM 30.7794 -81.5506 17° North 294 338 10,900  Level Jacksonville Center
07:36PM 31.0202 -81.3783 North  Level FlightAware Approximate
07:36PM 30.8792 -81.5128 18° North 331 381 12,600  Level Jacksonville Center
07:37PM 30.9789 -81.4750 18° North 359 413 15,100 2,400 Climbing Jacksonville Center
07:38PM 31.0831 -81.4444 14° North 376 433 17,400 2,100 Climbing Jacksonville Center
07:39PM 31.1933 -81.4158 13° North 382 440 19,300 1,800 Climbing Jacksonville Center
07:40PM 31.3058 -81.3900 11° North 400 460 21,100 1,800 Climbing Jacksonville Center
07:41PM 31.4350 -81.3633 10° North 420 483 22,900 1,680 Climbing Jacksonville Center
07:42PM 31.5411 -81.3372 12° North 427 491 24,500 1,500 Climbing Jacksonville Center
07:43PM 31.6764 -81.3058 11° North 442 509 26,000 1,260 Climbing Jacksonville Center
07:44PM 31.8014 -81.2792 10° North 452 520 27,100 1,200 Climbing Jacksonville Center
07:45PM 31.9261 -81.2378 16° North 458 527 28,500 1,500 Climbing Jacksonville Center
07:46PM 32.0333 -81.1428 37° Northeast 469 540 30,100 1,740 Climbing Jacksonville Center
07:47PM 32.1261 -81.0528 39° Northeast 476 548 32,000 1,800 Climbing Jacksonville Center
07:48PM 32.2353 -80.9597 36° Northeast 461 531 33,800 1,380 Climbing Jacksonville Center
07:49PM 32.3217 -80.8792 38° Northeast 440 506 34,800 960 Climbing Jacksonville Center
07:50PM 32.4267 -80.7808 38° Northeast 440 506 35,800 900 Climbing Jacksonville Center
07:51PM 32.5253 -80.6875 39° Northeast 445 512 36,600 960 Climbing Jacksonville Center
07:52PM 32.6217 -80.5986 38° Northeast 440 506 37,800 840 Climbing Jacksonville Center
07:53PM 32.7183 -80.5100 38° Northeast 435 501 38,300 600 Climbing Jacksonville Center
07:54PM 32.8125 -80.4208 39° Northeast 435 501 39,000 300 Climbing Jacksonville Center
07:55PM 32.9089 -80.3292 39° Northeast 435 501 39,000  Level Jacksonville Center
07:56PM 33.0028 -80.2347 40° Northeast 449 517 39,000  Level Jacksonville Center
07:57PM 33.1033 -80.1475 36° Northeast 454 522 39,000  Level Jacksonville Center
07:58PM 33.2094 -80.0450 39° Northeast 466 536 39,000  Level Jacksonville Center
07:59PM 33.3097 -79.9522 38° Northeast 466 536 39,000  Level Jacksonville Center
08:00PM 33.4097 -79.8569 38° Northeast 461 531 39,000  Level Jacksonville Center
08:01PM 33.5117 -79.7589 39° Northeast 456 525 39,000  Level Jacksonville Center
08:02PM 33.6114 -79.6631 39° Northeast 456 525 39,000  Level Jacksonville Center
08:03PM 33.7133 -79.5644 39° Northeast 456 525 39,000  Level Jacksonville Center
08:04PM 33.8169 -79.4631 39° Northeast 456 525 39,000  Level Jacksonville Center
08:05PM 33.9103 -79.3717 39° Northeast 449 517 39,000  Level Jacksonville Center
08:06PM 34.0142 -79.2750 38° Northeast 456 525 39,000  Level Jacksonville Center
08:08PM 34.1847 -79.1089 39° Northeast 456 525 39,000  Level Washington Center
08:09PM 34.2878 -79.0128 38° Northeast 461 531 39,000  Level Washington Center
08:10PM 34.3986 -78.9294 32° Northeast 466 536 39,000  Level Washington Center
08:11PM 34.5072 -78.8481 32° Northeast 461 531 39,000  Level Washington Center
08:12PM 34.6181 -78.7592 33° Northeast 467 537 39,000  Level Washington Center
08:13PM 34.7394 -78.6653 32° Northeast 474 545 39,000  Level Washington Center
08:14PM 34.8375 -78.5906 32° Northeast 469 540 39,000  Level Washington Center
08:15PM 34.9608 -78.4964 32° Northeast 469 540 39,000  Level Washington Center
08:16PM 35.0692 -78.4114 33° Northeast 464 534 39,000  Level Washington Center
08:17PM 35.1775 -78.3264 33° Northeast 464 534 39,000  Level Washington Center
08:18PM 35.2881 -78.2408 32° Northeast 464 534 39,000  Level Washington Center
08:19PM 35.3983 -78.1528 33° Northeast 464 534 39,000  Level Washington Center
08:20PM 35.5086 -78.0697 32° Northeast 464 534 39,000  Level Washington Center
08:21PM 35.6167 -77.9861 32° Northeast 464 534 39,000  Level Washington Center
08:22PM 35.7292 -77.9000 32° Northeast 464 534 39,000  Level Washington Center
08:23PM 35.8350 -77.8158 33° Northeast 464 534 39,000  Level Washington Center
08:24PM 35.9472 -77.7292 32° Northeast 464 534 39,000  Level Washington Center
08:25PM 36.0553 -77.6319 36° Northeast 464 534 39,000  Level Washington Center
08:26PM 36.1592 -77.5344 37° Northeast 464 534 39,000  Level Washington Center
08:27PM 36.2608 -77.4389 37° Northeast 464 534 39,000  Level Washington Center
08:28PM 36.3644 -77.3433 37° Northeast 464 534 39,000  Level Washington Center
08:29PM 36.4703 -77.2425 37° Northeast 472 543 39,000  Level Washington Center
08:30PM 36.5736 -77.1464 37° Northeast 472 543 39,000  Level Washington Center
08:31PM 36.6750 -77.0500 37° Northeast 466 536 39,000  Level Washington Center
08:32PM 36.7806 -76.9508 37° Northeast 466 536 39,000  Level Washington Center
08:33PM 36.8858 -76.8592 35° Northeast 466 536 39,000  Level Washington Center
08:34PM 36.9892 -76.7619 37° Northeast 461 531 39,000  Level Washington Center
08:35PM 37.0942 -76.6647 36° Northeast 461 531 39,000  Level Washington Center
08:36PM 37.1994 -76.5697 36° Northeast 461 531 39,000  Level Washington Center
08:37PM 37.2939 -76.4819 36° Northeast 461 531 39,000  Level Washington Center
08:38PM 37.4008 -76.3867 35° Northeast 461 531 39,000  Level Washington Center
08:39PM 37.5058 -76.2908 36° Northeast 461 531 39,000  Level Washington Center
08:40PM 37.6106 -76.1922 37° Northeast 461 531 39,000  Level Washington Center
08:41PM 37.7194 -76.1064 32° Northeast 461 531 39,000  Level Washington Center
08:42PM 37.8200 -75.9992 40° Northeast 466 536 39,000  Level Washington Center
08:43PM 37.9267 -75.9050 35° Northeast 466 536 39,000  Level Washington Center
08:44PM 38.0333 -75.8053 36° Northeast 466 536 39,000  Level Washington Center
08:45PM 38.1356 -75.7053 38° Northeast 466 536 39,000  Level Washington Center
08:46PM 38.2397 -75.6075 36° Northeast 466 536 39,000  Level Washington Center
08:47PM 38.3461 -75.5122 35° Northeast 461 531 39,000  Level Washington Center
08:48PM 38.4483 -75.4353 31° Northeast 461 531 39,000  Level Washington Center
08:49PM 38.5814 -75.3367 30° Northeast 466 536 39,000  Level Washington Center
08:50PM 38.6917 -75.2539 30° Northeast 461 531 39,000  Level Washington Center
08:51PM 38.8042 -75.1761 28° Northeast 461 531 39,000  Level Washington Center
08:52PM 38.9164 -75.0875 32° Northeast 461 531 39,000  Level Washington Center
08:53PM 39.0286 -75.0092 28° Northeast 461 531 39,000  Level Washington Center
08:54PM 39.1406 -74.9253 30° Northeast 461 531 39,000  Level Washington Center
08:55PM 39.2486 -74.8411 31° Northeast 461 531 39,000  Level Washington Center
08:56PM 39.3606 -74.7542 31° Northeast 468 539 39,000 -180 Level Washington Center
08:58PM 39.5956 -74.5803 30° Northeast 487 560 38,500 -480 Descending New York Center
08:59PM 39.7047 -74.4917 32° Northeast 481 554 37,500 -780 Descending New York Center
09:00PM 39.8328 -74.3931 31° Northeast 481 554 37,000 -300 Descending New York Center
09:01PM 39.9458 -74.3069 30° Northeast 475 547 37,000  Level New York Center
09:02PM 40.0611 -74.2181 31° Northeast 488 562 37,000 -300 Level New York Center
09:03PM 40.1764 -74.1286 31° Northeast 482 555 36,400 -1,080 Descending New York Center
09:04PM 40.2856 -74.0250 36° Northeast 482 555 34,900 -1,500 Descending New York Center
09:05PM 40.3947 -73.9158 37° Northeast 492 566 33,400 -1,440 Descending New York Center
09:06PM 40.4847 -73.8244 38° Northeast 498 573 32,100 660 Descending New York Center
09:09PM 40.6697 -73.6961 45° Northeast  Level FlightAware Approximate
09:10PM 40.9231 -73.3481 45° Northeast 494 568 37,000  Level Boston Center
09:11PM 41.0261 -73.1969 48° Northeast 486 559 26,000 -6,840 Descending Boston Center
09:12PM 41.1267 -73.0467 48° Northeast 493 567 23,100 -1,500 Descending Boston Center
09:13PM 41.1964 -72.9214 53° Northeast 479 551 23,000 -60 Descending Boston Center
09:14PM 41.2550 -72.7639 64° Northeast 480 552 23,000  Level Boston Center
09:15PM 41.3231 -72.5828 63° Northeast 480 552 23,000  Level Boston Center
09:16PM 41.3814 -72.4267 63° Northeast 472 543 23,000  Level Boston Center
09:17PM 41.4394 -72.2694 64° Northeast 470 541 23,000  Level Boston Center
09:18PM 41.4975 -72.1144 63° Northeast 468 539 23,000 -120 Level Boston Center
09:19PM 41.5550 -71.9533 64° Northeast 468 539 22,800 -1,260 Descending Boston Center
09:20PM 41.6114 -71.8008 64° Northeast 463 533 20,500 -2,400 Descending Boston Center
09:21PM 41.6678 -71.6436 64° Northeast 443 510 18,000 -2,280 Descending Boston Center
09:22PM 41.7189 -71.5053 64° Northeast 430 495 15,800 -2,280 Descending Boston Center
09:23PM 41.7722 -71.3564 64° Northeast 418 481 13,500 -2,280 Descending Boston Center
09:24PM 41.8206 -71.2219 64° Northeast 405 466 11,300 -1,260 Descending Boston Center
09:25PM 41.8692 -71.0922 63° Northeast 393 452 11,000 -180 Descending Boston Center
09:26PM 41.9167 -71.0000 55° Northeast 391 450 11,000  Level KA90
09:27PM 41.9833 -70.8500 59° Northeast 393 452 11,000  Level KA90
09:28PM 42.0333 -70.7167 63° Northeast 397 457 11,000 -120 Level KA90
09:29PM 42.1000 -70.6500 37° Northeast 342 394 10,800 -1,080 Descending KA90
09:30PM 42.1833 -70.6167 17° North 326 375 9,000 -1,980 Descending KA90
09:31PM 42.2667 -70.6000 North 311 358 6,900 -1,440 Descending KA90
09:32PM 42.3500 -70.6167 352° North 255 293 6,100 -1,020 Descending KA90
09:33PM 42.4167 -70.6333 350° North 251 289 4,800 -1,200 Descending KA90
09:34PM 42.4833 -70.6333 360° North 247 284 4,000 -480 Descending KA90
09:35PM 42.5500 -70.6500 350° North 251 289 4,000  Level KA90
09:36PM 42.6000 -70.6833 334° Northwest 209 241 4,000  Level KA90
09:37PM 42.6167 -70.7153 305° West 207 238 4,000  Level Boston Center
09:38PM 42.6406 -70.7833 296° West 200 230 4,000 -240 Level Boston Center
09:39PM 42.6231 -70.8397 247° West 169 194 3,600 -360 Descending Boston Center
09:40PM 42.6036 -70.8803 237° Southwest 133 153 3,300 -300 Descending Boston Center
09:41PM 42.5778 -70.9028 213° Southwest 119 137 3,000 -180 Descending Boston Center
09:42PM 42.5436 -70.9186 199° South 120 138 3,000 -60 Level Boston Center
09:43PM 42.5122 -70.9336 199° South 119 137 2,900 -360 Descending Boston Center
09:44PM 42.4836 -70.9475 200° South 112 129 2,300 -600 Descending Boston Center
09:45PM 42.4525 -70.9631 200° South 118 136 1,700 -600 Descending Boston Center
09:46PM 42.4231 -70.9772 200° South 113 130 1,100 -600 Descending Boston Center
09:47PM 42.3961 -70.9894 199° South 103 119 500 -360 Descending Boston Center
09:48PM 42.3686 -71.0033 200° South 104 120 400 -120 Descending Boston Center